createdAt,value
2022-09-25T00:00:57.656Z,99539.47
2022-09-25T00:03:27.067Z,99534.31
2022-09-25T00:05:59.985Z,99543.16
2022-09-25T00:08:26.808Z,99536.22
2022-09-25T00:10:53.490Z,99537.22
2022-09-25T00:13:21.214Z,99544.44
2022-09-25T00:15:53.721Z,99540.88
2022-09-25T00:18:41.371Z,99540.19
2022-09-25T00:21:09.909Z,99526.22
2022-09-25T00:23:36.556Z,99529.78
2022-09-25T00:26:05.996Z,99523.69
2022-09-25T00:28:32.714Z,99530.69
2022-09-25T00:30:59.964Z,99530.00
2022-09-25T00:33:27.011Z,99529.19
2022-09-25T00:35:53.761Z,99541.59
2022-09-25T00:38:20.493Z,99543.41
2022-09-25T00:40:47.247Z,99539.94
2022-09-25T00:43:37.192Z,99543.34
2022-09-25T00:46:11.924Z,99542.66
2022-09-25T00:48:48.564Z,99546.13
2022-09-25T00:51:19.412Z,99551.50
2022-09-25T00:53:46.915Z,99551.50
2022-09-25T00:56:14.580Z,99543.78
2022-09-25T00:58:42.329Z,99543.84
2022-09-25T01:01:10.191Z,99544.84
2022-09-25T01:03:40.045Z,99544.88
2022-09-25T01:06:06.855Z,99544.00
2022-09-25T01:08:34.936Z,99538.75
2022-09-25T01:11:02.136Z,99535.34
2022-09-25T01:13:30.079Z,99548.56
2022-09-25T01:16:04.318Z,99540.72
2022-09-25T01:18:40.061Z,99540.75
2022-09-25T01:21:13.972Z,99542.59
2022-09-25T01:24:04.242Z,99541.69
2022-09-25T01:26:55.432Z,99536.50
2022-09-25T01:29:27.446Z,99536.63
2022-09-25T01:32:14.030Z,99536.69
2022-09-25T01:34:59.921Z,99541.03
2022-09-25T01:37:40.659Z,99541.16
2022-09-25T01:40:13.321Z,99541.16
2022-09-25T01:42:48.094Z,99545.50
2022-09-25T01:45:31.292Z,99542.97
2022-09-25T01:48:01.636Z,99546.47
2022-09-25T01:50:38.537Z,99543.91
2022-09-25T01:53:11.154Z,99543.06
2022-09-25T01:55:47.705Z,99549.34
2022-09-25T01:58:31.756Z,99545.03
2022-09-25T02:01:04.377Z,99545.94
2022-09-25T02:03:39.898Z,99554.78
2022-09-25T02:06:10.190Z,99544.34
2022-09-25T02:08:44.126Z,99542.66
2022-09-25T02:11:12.545Z,99552.28
2022-09-25T02:13:55.925Z,99546.22
2022-09-25T02:16:29.301Z,99547.06
2022-09-25T02:19:14.786Z,99545.34
2022-09-25T02:21:56.784Z,99553.28
2022-09-25T02:24:37.479Z,99553.38
2022-09-25T02:27:04.600Z,99548.22
2022-09-25T02:29:31.907Z,99546.50
2022-09-25T02:32:03.863Z,99552.69
2022-09-25T02:34:32.655Z,99541.38
2022-09-25T02:36:59.945Z,99546.66
2022-09-25T02:39:30.194Z,99551.94
2022-09-25T02:42:25.135Z,99545.03
2022-09-25T02:45:15.125Z,99549.59
2022-09-25T02:48:00.116Z,99550.50
2022-09-25T02:50:32.787Z,99551.47
2022-09-25T02:53:14.516Z,99558.59
2022-09-25T02:55:57.548Z,99553.50
2022-09-25T02:58:30.434Z,99556.25
2022-09-25T03:01:00.058Z,99553.75
2022-09-25T03:03:28.407Z,99545.91
2022-09-25T03:05:57.052Z,99546.78
2022-09-25T03:08:37.779Z,99544.16
2022-09-25T03:11:14.498Z,99541.66
2022-09-25T03:13:42.467Z,99546.00
2022-09-25T03:16:20.297Z,99543.44
2022-09-25T03:18:49.970Z,99546.13
2022-09-25T03:21:16.892Z,99551.38
2022-09-25T03:23:43.735Z,99548.75
2022-09-25T03:26:10.444Z,99555.66
2022-09-25T03:28:37.223Z,99550.41
2022-09-25T03:31:07.529Z,99554.75
2022-09-25T03:33:45.476Z,99551.19
2022-09-25T03:36:24.583Z,99555.50
2022-09-25T03:38:53.773Z,99562.50
2022-09-25T03:41:22.642Z,99558.03
2022-09-25T03:43:54.385Z,99570.25
2022-09-25T03:46:23.662Z,99564.06
2022-09-25T03:48:50.547Z,99563.06
2022-09-25T03:51:17.507Z,99564.69
2022-09-25T03:53:44.209Z,99576.88
2022-09-25T03:56:13.467Z,99577.63
2022-09-25T03:58:40.618Z,99570.63
2022-09-25T04:01:07.520Z,99567.09
2022-09-25T04:03:34.523Z,99570.47
2022-09-25T04:06:06.483Z,99572.22
2022-09-25T04:08:35.151Z,99574.75
2022-09-25T04:11:02.513Z,99571.88
2022-09-25T04:13:35.378Z,99566.16
2022-09-25T04:16:05.532Z,99573.53
2022-09-25T04:18:33.122Z,99572.22
2022-09-25T04:21:06.474Z,99575.19
2022-09-25T04:23:33.577Z,99582.63
2022-09-25T04:26:00.456Z,99578.72
2022-09-25T04:28:28.172Z,99573.00
2022-09-25T04:30:54.851Z,99571.72
2022-09-25T04:33:40.146Z,99575.56
2022-09-25T04:36:07.320Z,99569.72
2022-09-25T04:38:34.166Z,99575.41
2022-09-25T04:41:02.159Z,99582.84
2022-09-25T04:43:29.874Z,99571.75
2022-09-25T04:46:04.913Z,99578.41
2022-09-25T04:48:32.399Z,99580.44
2022-09-25T04:50:59.330Z,99568.44
2022-09-25T04:53:27.329Z,99574.88
2022-09-25T04:55:55.230Z,99571.66
2022-09-25T04:58:22.184Z,99577.25
2022-09-25T05:00:49.499Z,99572.22
2022-09-25T05:03:16.619Z,99574.19
2022-09-25T05:05:43.443Z,99580.53
2022-09-25T05:08:11.635Z,99571.91
2022-09-25T05:10:41.652Z,99576.25
2022-09-25T05:13:11.201Z,99576.97
2022-09-25T05:15:38.076Z,99578.34
2022-09-25T05:18:19.912Z,99582.25
2022-09-25T05:20:46.763Z,99579.63
2022-09-25T05:23:13.602Z,99580.19
2022-09-25T05:25:40.672Z,99589.34
2022-09-25T05:28:07.415Z,99594.88
2022-09-25T05:30:36.072Z,99587.22
2022-09-25T05:33:02.956Z,99585.75
2022-09-25T05:35:32.219Z,99592.47
2022-09-25T05:37:59.053Z,99585.19
2022-09-25T05:40:26.270Z,99577.91
2022-09-25T05:42:53.525Z,99583.47
2022-09-25T05:45:23.253Z,99578.91
2022-09-25T05:48:01.549Z,99573.63
2022-09-25T05:50:28.980Z,99575.28
2022-09-25T05:53:03.615Z,99579.38
2022-09-25T05:55:30.993Z,99579.09
2022-09-25T05:58:02.821Z,99583.88
2022-09-25T06:00:32.766Z,99588.00
2022-09-25T06:03:01.180Z,99573.75
2022-09-25T06:05:28.033Z,99582.38
2022-09-25T06:07:55.747Z,99577.34
2022-09-25T06:10:22.545Z,99578.44
2022-09-25T06:12:49.316Z,99582.50
2022-09-25T06:15:16.178Z,99581.28
2022-09-25T06:17:43.309Z,99577.88
2022-09-25T06:20:15.860Z,99573.94
2022-09-25T06:22:44.550Z,99579.78
2022-09-25T06:25:11.405Z,99581.34
2022-09-25T06:27:38.430Z,99576.56
2022-09-25T06:30:06.057Z,99578.94
2022-09-25T06:32:33.116Z,99580.59
2022-09-25T06:35:00.147Z,99581.31
2022-09-25T06:37:27.068Z,99580.38
2022-09-25T06:39:53.934Z,99571.94
2022-09-25T06:42:20.797Z,99571.97
2022-09-25T06:44:47.748Z,99578.63
2022-09-25T06:47:18.465Z,99571.56
2022-09-25T06:49:46.406Z,99570.28
2022-09-25T06:52:13.245Z,99568.38
2022-09-25T06:54:43.953Z,99569.56
2022-09-25T06:57:12.620Z,99568.97
2022-09-25T06:59:39.933Z,99569.88
2022-09-25T07:02:25.729Z,99564.38
2022-09-25T07:04:52.552Z,99560.41
2022-09-25T07:07:21.192Z,99566.25
2022-09-25T07:09:48.587Z,99565.94
2022-09-25T07:12:18.484Z,99568.53
2022-09-25T07:14:47.040Z,99566.25
2022-09-25T07:17:14.777Z,99570.50
2022-09-25T07:19:41.769Z,99572.03
2022-09-25T07:22:08.664Z,99562.97
2022-09-25T07:24:35.598Z,99561.84
2022-09-25T07:27:02.407Z,99562.13
2022-09-25T07:29:29.556Z,99557.41
2022-09-25T07:31:56.488Z,99556.91
2022-09-25T07:34:23.486Z,99549.34
2022-09-25T07:36:52.981Z,99549.78
2022-09-25T07:39:19.992Z,99546.66
2022-09-25T07:41:47.640Z,99546.88
2022-09-25T07:44:37.265Z,99547.72
2022-09-25T07:47:02.691Z,99550.25
2022-09-25T07:49:31.195Z,99539.63
2022-09-25T07:51:58.056Z,99545.88
2022-09-25T07:54:25.076Z,99544.31
2022-09-25T07:56:52.130Z,99540.44
2022-09-25T07:59:18.941Z,99547.13
2022-09-25T08:01:51.076Z,99554.22
2022-09-25T08:04:20.583Z,99547.34
2022-09-25T08:06:47.486Z,99551.53
2022-09-25T08:09:14.394Z,99548.88
2022-09-25T08:11:41.293Z,99548.25
2022-09-25T08:14:08.204Z,99549.47
2022-09-25T08:16:35.318Z,99543.38
2022-09-25T08:19:02.140Z,99538.53
2022-09-25T08:21:28.993Z,99539.72
2022-09-25T08:23:56.578Z,99540.56
2022-09-25T08:26:23.634Z,99534.31
2022-09-25T08:28:52.108Z,99541.56
2022-09-25T08:31:19.554Z,99534.25
2022-09-25T08:33:48.493Z,99532.34
2022-09-25T08:36:16.287Z,99527.81
2022-09-25T08:38:43.319Z,99528.88
2022-09-25T08:41:21.983Z,99531.97
2022-09-25T08:44:01.049Z,99531.66
2022-09-25T08:47:12.271Z,99515.47
2022-09-25T08:49:50.105Z,99519.19
2022-09-25T08:52:20.660Z,99522.06
2022-09-25T15:57:36.795Z,99407.28
2022-09-25T16:00:34.675Z,99400.66
2022-09-25T16:03:32.499Z,99407.13
2022-09-25T16:06:04.014Z,99414.34
2022-09-25T16:08:36.933Z,99404.75
2022-09-25T16:11:21.940Z,99403.84
2022-09-25T16:13:52.062Z,99401.13
2022-09-25T16:16:31.351Z,99392.25
2022-09-25T16:19:00.491Z,99389.75
2022-09-25T16:21:33.990Z,99386.34
2022-09-25T16:24:04.002Z,99388.28
2022-09-25T16:26:42.287Z,99387.66
2022-09-25T16:29:12.319Z,99387.91
2022-09-25T16:31:40.913Z,99391.00
2022-09-25T16:34:18.433Z,99385.53
2022-09-25T16:36:48.716Z,99384.84
2022-09-25T16:39:27.990Z,99389.00
2022-09-25T16:41:55.620Z,99386.31
2022-09-25T16:44:37.390Z,99398.69
2022-09-25T16:47:06.577Z,99397.09
2022-09-25T16:49:34.446Z,99400.66
2022-09-25T16:52:09.072Z,99398.00
2022-09-25T16:54:38.241Z,99407.59
2022-09-25T16:57:05.412Z,99404.81
2022-09-25T16:59:32.460Z,99411.63
2022-09-25T17:02:05.052Z,99412.91
2022-09-25T17:04:35.964Z,99418.56
2022-09-25T17:07:02.929Z,99417.34
2022-09-25T17:09:31.614Z,99422.28
2022-09-25T17:12:07.617Z,99417.41
2022-09-25T17:14:35.434Z,99413.34
2022-09-25T17:17:02.560Z,99412.63
2022-09-25T17:19:29.656Z,99415.63
2022-09-25T17:21:57.209Z,99408.13
2022-09-25T17:24:27.525Z,99408.50
2022-09-25T17:26:54.985Z,99414.94
2022-09-25T17:29:22.740Z,99412.56
2022-09-25T17:31:49.850Z,99415.53
2022-09-25T17:34:24.664Z,99404.34
2022-09-25T17:36:54.480Z,99408.28
2022-09-25T17:39:21.828Z,99413.75
2022-09-25T17:41:48.930Z,99411.13
2022-09-25T17:44:18.729Z,99417.28
2022-09-25T17:46:45.869Z,99411.13
2022-09-25T17:49:13.040Z,99410.31
2022-09-25T17:51:40.910Z,99412.13
2022-09-25T17:54:08.132Z,99406.97
2022-09-25T17:56:35.533Z,99418.63
2022-09-25T17:59:02.694Z,99420.56
2022-09-25T18:01:34.214Z,99412.63
2022-09-25T18:04:25.333Z,99416.16
2022-09-25T18:06:52.744Z,99411.66
2022-09-25T18:09:19.993Z,99413.16
2022-09-25T18:11:47.288Z,99414.69
2022-09-25T18:14:15.642Z,99407.50
2022-09-25T18:16:44.160Z,99407.38
2022-09-25T18:19:39.590Z,99396.75
2022-09-25T18:22:19.285Z,99399.31
2022-09-25T18:24:57.334Z,99414.19
2022-09-25T18:27:28.807Z,99416.00
2022-09-25T18:29:56.115Z,99422.22
2022-09-25T18:32:24.368Z,99413.38
2022-09-25T18:34:51.823Z,99404.59
2022-09-25T18:37:18.853Z,99399.38
2022-09-25T18:39:48.213Z,99407.22
2022-09-25T18:42:15.292Z,99407.88
2022-09-25T18:44:43.276Z,99404.97
2022-09-25T18:47:11.256Z,99409.06
2022-09-25T18:49:38.288Z,99412.31
2022-09-25T18:52:06.046Z,99411.88
2022-09-25T18:54:33.379Z,99406.25
2022-09-25T18:57:00.511Z,99400.56
2022-09-25T18:59:27.509Z,99410.84
2022-09-25T19:01:55.873Z,99404.34
2022-09-25T19:04:23.170Z,99409.28
2022-09-25T19:06:50.109Z,99405.38
2022-09-25T19:09:17.709Z,99398.78
2022-09-25T19:11:45.632Z,99402.06
2022-09-25T19:14:14.953Z,99396.75
2022-09-25T19:16:41.924Z,99393.41
2022-09-25T19:19:09.489Z,99402.25
2022-09-25T19:21:36.311Z,99395.22
2022-09-25T19:24:03.332Z,99395.06
2022-09-25T19:26:31.150Z,99404.56
2022-09-25T19:28:58.067Z,99409.56
2022-09-25T19:31:26.422Z,99410.13
2022-09-25T19:33:55.097Z,99388.66
2022-09-25T19:36:27.738Z,99385.88
2022-09-25T19:38:54.798Z,99381.72
2022-09-25T19:41:43.445Z,99383.25
2022-09-25T19:44:14.302Z,99373.47
2022-09-25T19:46:45.315Z,99375.13
2022-09-25T19:49:14.111Z,99365.22
2022-09-25T19:51:41.579Z,99367.56
2022-09-25T19:54:12.223Z,99378.47
2022-09-25T19:56:40.884Z,99379.59
2022-09-25T19:59:13.820Z,99382.44
2022-09-25T20:01:42.954Z,99380.88
2022-09-25T20:04:17.220Z,99376.56
2022-09-25T20:06:46.028Z,99375.72
2022-09-25T20:09:13.042Z,99366.06
2022-09-25T20:11:39.992Z,99371.34
2022-09-25T20:14:07.615Z,99366.88
2022-09-25T20:16:34.697Z,99365.72
2022-09-25T20:19:03.612Z,99369.97
2022-09-25T20:21:33.448Z,99357.53
2022-09-25T20:24:02.322Z,99361.75
2022-09-25T20:26:30.041Z,99359.91
2022-09-25T20:28:59.703Z,99368.47
2022-09-25T20:31:28.438Z,99359.38
2022-09-25T20:33:55.469Z,99355.47
2022-09-25T20:36:22.896Z,99348.19
2022-09-25T20:38:50.884Z,99354.84
2022-09-25T20:41:18.441Z,99343.03
2022-09-25T20:43:49.335Z,99350.53
2022-09-25T20:46:16.512Z,99361.69
2022-09-25T20:48:47.793Z,99353.38
2022-09-25T20:51:17.592Z,99347.78
2022-09-25T20:53:49.981Z,99349.19
2022-09-25T20:56:17.085Z,99340.19
2022-09-25T20:58:47.371Z,99348.69
2022-09-25T21:01:19.680Z,99342.25
2022-09-25T21:03:48.245Z,99346.53
2022-09-25T21:06:18.068Z,99343.59
2022-09-25T21:08:45.258Z,99346.00
2022-09-25T21:11:12.969Z,99343.13
2022-09-25T21:13:40.477Z,99345.50
2022-09-25T21:16:12.846Z,99348.00
2022-09-25T21:18:41.223Z,99345.22
2022-09-25T21:21:11.260Z,99339.69
2022-09-25T21:23:38.645Z,99341.34
2022-09-25T21:26:10.845Z,99344.59
2022-09-25T21:28:42.930Z,99340.94
2022-09-25T21:31:15.096Z,99340.75
2022-09-25T21:33:42.344Z,99344.19
2022-09-25T21:36:11.315Z,99347.47
2022-09-25T21:38:38.401Z,99343.81
2022-09-25T21:41:08.042Z,99336.63
2022-09-25T21:43:35.968Z,99341.78
2022-09-25T21:46:19.535Z,99339.88
2022-09-25T21:48:54.886Z,99338.97
2022-09-25T21:51:23.650Z,99330.84
2022-09-25T21:53:50.379Z,99341.47
2022-09-25T21:56:19.574Z,99330.78
2022-09-25T21:58:47.180Z,99330.59
2022-09-25T22:01:16.260Z,99316.34
2022-09-25T22:03:46.054Z,99318.06
2022-09-25T22:06:15.262Z,99312.69
2022-09-25T22:08:45.933Z,99317.91
2022-09-25T22:11:13.088Z,99320.47
2022-09-25T22:13:42.060Z,99330.91
2022-09-25T22:16:16.769Z,99313.97
2022-09-25T22:18:49.307Z,99318.34
2022-09-25T22:21:18.845Z,99317.28
2022-09-25T22:23:45.829Z,99306.63
2022-09-25T22:26:13.569Z,99296.88
2022-09-25T22:28:41.482Z,99291.75
2022-09-25T22:31:20.188Z,99284.13
2022-09-25T22:33:48.735Z,99273.09
2022-09-25T22:36:15.546Z,99274.50
2022-09-25T22:38:42.279Z,99279.53
2022-09-25T22:41:11.573Z,99278.16
2022-09-25T22:43:39.081Z,99283.69
2022-09-25T22:46:07.209Z,99279.47
2022-09-25T22:48:34.425Z,99279.47
2022-09-25T22:51:02.967Z,99278.38
2022-09-25T22:53:31.379Z,99278.22
2022-09-25T22:56:32.355Z,99287.09
2022-09-25T22:59:18.290Z,99289.34
2022-09-25T23:01:53.933Z,99289.97
2022-09-25T23:04:23.619Z,99272.97
2022-09-25T23:06:50.678Z,99270.16
2022-09-25T23:09:22.483Z,99273.50
2022-09-25T23:11:49.461Z,99271.63
2022-09-25T23:14:19.896Z,99278.47
2022-09-25T23:16:48.088Z,99280.09
2022-09-25T23:19:15.564Z,99277.28
2022-09-25T23:21:42.422Z,99275.41
2022-09-25T23:24:12.449Z,99269.97
2022-09-25T23:26:39.187Z,99266.25
2022-09-25T23:29:06.164Z,99267.03
2022-09-25T23:31:33.780Z,99268.91
2022-09-25T23:34:02.083Z,99276.09
2022-09-25T23:36:29.894Z,99270.47
2022-09-25T23:38:59.839Z,99261.41
2022-09-25T23:41:28.166Z,99257.66
2022-09-25T23:43:55.527Z,99257.41
2022-09-25T23:46:24.773Z,99258.16
2022-09-25T23:48:52.295Z,99249.97
2022-09-25T23:51:20.819Z,99260.66
2022-09-25T23:53:47.647Z,99261.50
2022-09-25T23:56:17.513Z,99258.84
2022-09-25T23:58:44.476Z,99265.53
